Time;durP1;ratioP1;P1;durP2;ratioP2;P2;SDS_P1;SDS_P2;PMS_P1;PMS_P2;Temp;Humidity;BMP_temperature;BMP_pressure;BME280_temperature;BME280_humidity;BME280_pressure;Samples;Min_cycle;Max_cycle;Signal;HPM_P1;HPM_P2
2023/08/18 00:00:09;;;;;;;0.50;0.50;;;12.50;99.90;;;;;;5034056;28;20198;-69
2023/08/18 00:02:35;;;;;;;0.40;0.40;;;12.50;99.90;;;;;;5033329;28;20190;-70
2023/08/18 00:05:01;;;;;;;0.40;0.40;;;12.60;99.90;;;;;;5046091;28;20224;-71
2023/08/18 00:07:26;;;;;;;0.40;0.40;;;12.70;99.90;;;;;;5052235;28;20197;-71
2023/08/18 00:09:52;;;;;;;0.43;0.43;;;12.70;99.90;;;;;;5051990;28;20229;-71
2023/08/18 00:12:18;;;;;;;0.40;0.40;;;12.80;99.90;;;;;;5052280;28;20316;-70
2023/08/18 00:14:43;;;;;;;0.50;0.50;;;12.80;99.90;;;;;;5053582;28;20197;-70
2023/08/18 00:17:10;;;;;;;0.40;0.40;;;12.80;99.90;;;;;;5053433;28;20565;-70
2023/08/18 00:19:37;;;;;;;0.40;0.40;;;12.90;99.90;;;;;;5053328;28;20227;-70
2023/08/18 00:22:03;;;;;;;0.40;0.40;;;12.90;99.90;;;;;;5051427;28;20564;-70
2023/08/18 00:24:28;;;;;;;0.40;0.40;;;13.00;99.90;;;;;;5053274;28;20247;-70
2023/08/18 00:26:54;;;;;;;0.40;0.40;;;13.10;99.90;;;;;;5053059;28;20200;-70
2023/08/18 00:29:20;;;;;;;0.45;0.45;;;13.10;99.90;;;;;;5053033;28;20197;-70
2023/08/18 00:31:45;;;;;;;0.50;0.50;;;13.20;99.90;;;;;;5053243;28;20189;-71
2023/08/18 00:34:11;;;;;;;0.50;0.50;;;13.30;99.90;;;;;;5052863;28;20205;-70
2023/08/18 00:36:37;;;;;;;0.45;0.45;;;13.30;99.90;;;;;;5053189;28;20268;-70
2023/08/18 00:39:03;;;;;;;0.57;0.57;;;13.30;99.90;;;;;;5052523;28;20192;-70
2023/08/18 00:41:29;;;;;;;0.40;0.40;;;13.30;99.90;;;;;;5052700;28;20243;-70
2023/08/18 00:43:55;;;;;;;0.40;0.40;;;13.30;99.90;;;;;;5053019;28;20202;-70
2023/08/18 00:46:21;;;;;;;0.50;0.50;;;13.30;99.90;;;;;;5052773;28;20519;-70
2023/08/18 00:48:48;;;;;;;0.40;0.40;;;13.30;99.90;;;;;;5052591;28;20611;-70
2023/08/18 00:51:14;;;;;;;0.40;0.40;;;13.30;99.90;;;;;;5052524;28;20190;-71
2023/08/18 00:53:41;;;;;;;0.40;0.40;;;13.30;99.90;;;;;;5052667;28;20252;-70
2023/08/18 00:56:09;;;;;;;0.40;0.40;;;13.30;99.90;;;;;;5051438;28;20212;-70
2023/08/18 00:58:36;;;;;;;0.30;0.30;;;13.30;99.90;;;;;;5052428;28;20213;-70
2023/08/18 01:03:35;;;;;;;0.45;0.45;;;13.20;99.90;;;;;;5068725;28;20246;-75
2023/08/18 01:06:04;;;;;;;0.47;0.47;;;13.20;99.90;;;;;;5072299;28;20268;-75
2023/08/18 01:08:30;;;;;;;0.47;0.47;;;13.20;99.90;;;;;;5072218;28;20258;-75
2023/08/18 01:11:22;;;;;;;0.35;0.35;;;13.10;99.90;;;;;;5072596;28;20185;-74
2023/08/18 01:14:25;;;;;;;0.38;0.38;;;13.20;99.90;;;;;;5043545;28;20710;-75
2023/08/18 01:16:57;;;;;;;0.60;0.60;;;13.20;99.90;;;;;;5054418;28;20721;-75
2023/08/18 01:19:25;;;;;;;0.40;0.40;;;13.10;99.90;;;;;;5070047;28;20564;-74
2023/08/18 01:21:55;;;;;;;0.30;0.30;;;13.10;99.90;;;;;;5042577;28;20605;-74
2023/08/18 01:24:26;;;;;;;0.60;0.60;;;13.10;99.90;;;;;;5033837;28;20216;-75
2023/08/18 01:26:52;;;;;;;0.40;0.40;;;13.00;99.90;;;;;;5052350;28;20660;-74
2023/08/18 01:29:23;;;;;;;0.75;0.70;;;13.00;99.90;;;;;;5052024;28;20193;-74
2023/08/18 01:31:53;;;;;;;0.40;0.40;;;13.00;99.90;;;;;;5051831;28;20193;-75
2023/08/18 01:34:24;;;;;;;0.40;0.40;;;12.90;99.90;;;;;;5033308;28;20583;-74
2023/08/18 01:36:53;;;;;;;0.40;0.40;;;12.90;99.90;;;;;;5067321;28;20208;-75
2023/08/18 01:39:23;;;;;;;0.38;0.38;;;12.80;99.90;;;;;;5071768;28;20195;-76
2023/08/18 01:41:49;;;;;;;0.40;0.40;;;12.80;99.90;;;;;;5070264;28;20199;-74
2023/08/18 01:44:16;;;;;;;4.57;1.42;;;12.70;99.90;;;;;;5072121;28;20189;-74
2023/08/18 01:46:42;;;;;;;0.50;0.50;;;12.70;99.90;;;;;;5071903;28;20189;-75
2023/08/18 01:49:08;;;;;;;0.40;0.40;;;12.70;99.90;;;;;;5071829;28;20207;-74
2023/08/18 01:51:34;;;;;;;0.50;0.50;;;12.60;99.90;;;;;;5053235;28;20683;-74
2023/08/18 01:54:00;;;;;;;0.40;0.40;;;12.60;99.90;;;;;;5071255;28;20201;-74
2023/08/18 01:56:26;;;;;;;0.40;0.40;;;12.60;99.90;;;;;;5071547;28;20188;-74
2023/08/18 01:58:51;;;;;;;0.40;0.40;;;12.50;99.90;;;;;;5071878;28;20203;-74
2023/08/18 02:01:17;;;;;;;0.45;0.45;;;12.50;99.90;;;;;;5071258;28;20199;-74
2023/08/18 02:03:43;;;;;;;0.50;0.50;;;12.40;99.90;;;;;;5056156;28;20204;-74
2023/08/18 02:06:09;;;;;;;0.40;0.40;;;12.40;99.90;;;;;;5055655;28;20192;-73
2023/08/18 02:08:35;;;;;;;0.40;0.40;;;12.40;99.90;;;;;;5055589;28;20204;-74
2023/08/18 02:11:05;;;;;;;0.70;0.70;;;12.40;99.90;;;;;;5054356;28;20662;-73
2023/08/18 02:13:32;;;;;;;0.40;0.40;;;12.40;99.90;;;;;;5037583;28;20229;-76
2023/08/18 02:15:58;;;;;;;0.50;0.50;;;12.30;99.90;;;;;;5055048;28;20609;-76
2023/08/18 02:18:24;;;;;;;0.60;0.60;;;12.30;99.90;;;;;;5037881;28;20599;-76
2023/08/18 02:20:56;;;;;;;0.52;0.52;;;12.30;99.90;;;;;;5055420;28;20194;-76
2023/08/18 02:23:22;;;;;;;0.40;0.40;;;12.30;99.90;;;;;;5037261;28;20706;-76
2023/08/18 02:25:48;;;;;;;0.43;0.43;;;12.30;99.90;;;;;;5055608;28;20221;-76
2023/08/18 02:28:15;;;;;;;0.40;0.40;;;12.30;99.90;;;;;;5055728;28;20563;-76
2023/08/18 02:30:40;;;;;;;0.40;0.40;;;12.30;99.90;;;;;;5054197;28;20573;-76
2023/08/18 02:33:06;;;;;;;0.40;0.40;;;12.30;99.90;;;;;;5055501;28;20211;-76
2023/08/18 02:35:32;;;;;;;0.40;0.40;;;12.30;99.90;;;;;;5055296;28;20201;-76
2023/08/18 02:37:58;;;;;;;0.45;0.45;;;12.20;99.90;;;;;;5037752;28;20795;-76
2023/08/18 02:40:24;;;;;;;0.40;0.40;;;12.30;99.90;;;;;;5037821;28;20201;-76
2023/08/18 02:42:50;;;;;;;0.40;0.40;;;12.30;99.90;;;;;;5055973;28;20197;-76
2023/08/18 02:45:15;;;;;;;0.40;0.40;;;12.30;99.90;;;;;;5057401;28;20635;-77
2023/08/18 02:47:41;;;;;;;0.45;0.45;;;12.30;99.90;;;;;;5075532;28;20561;-76
2023/08/18 02:50:07;;;;;;;0.40;0.40;;;12.30;99.90;;;;;;5057510;28;20216;-76
2023/08/18 02:52:33;;;;;;;0.68;0.68;;;12.20;99.90;;;;;;5074932;28;20212;-76
2023/08/18 02:54:59;;;;;;;1.55;1.35;;;12.20;99.90;;;;;;5056426;28;20259;-76
2023/08/18 02:57:24;;;;;;;0.47;0.47;;;12.20;99.90;;;;;;5074724;28;20679;-76
2023/08/18 02:59:50;;;;;;;0.40;0.40;;;12.10;99.90;;;;;;5074551;28;20664;-76
2023/08/18 03:02:16;;;;;;;0.40;0.40;;;12.10;99.90;;;;;;5064305;28;20224;-75
2023/08/18 03:04:44;;;;;;;0.30;0.30;;;12.10;99.90;;;;;;5074594;28;20203;-76
2023/08/18 03:07:10;;;;;;;0.45;0.45;;;12.00;99.90;;;;;;5075184;28;20539;-75
2023/08/18 03:09:35;;;;;;;0.40;0.40;;;12.00;99.90;;;;;;5073525;28;20191;-75
2023/08/18 03:12:01;;;;;;;0.50;0.50;;;11.90;99.90;;;;;;5074671;28;20189;-74
2023/08/18 03:14:27;;;;;;;0.40;0.40;;;11.90;99.90;;;;;;5074392;28;20204;-74
2023/08/18 03:16:53;;;;;;;0.60;0.60;;;11.90;99.90;;;;;;5056488;28;20197;-74
2023/08/18 03:19:18;;;;;;;0.50;0.50;;;11.90;99.90;;;;;;5074402;28;20190;-74
2023/08/18 03:21:44;;;;;;;0.40;0.40;;;11.80;99.90;;;;;;5074538;28;20283;-74
2023/08/18 03:24:10;;;;;;;0.40;0.40;;;11.80;99.90;;;;;;5075201;28;20658;-75
2023/08/18 03:26:35;;;;;;;0.43;0.43;;;11.80;99.90;;;;;;5073792;28;20669;-75
2023/08/18 03:29:01;;;;;;;0.40;0.40;;;11.80;99.90;;;;;;5072322;28;20227;-75
2023/08/18 03:31:27;;;;;;;0.50;0.50;;;11.90;99.90;;;;;;5073178;28;20200;-76
2023/08/18 03:33:53;;;;;;;0.40;0.40;;;12.00;99.90;;;;;;5073246;28;20207;-76
2023/08/18 03:36:20;;;;;;;0.50;0.50;;;12.10;99.90;;;;;;5071823;28;20205;-76
2023/08/18 03:38:45;;;;;;;0.40;0.40;;;12.10;99.90;;;;;;5071108;28;20201;-76
2023/08/18 03:41:12;;;;;;;0.50;0.50;;;12.20;99.90;;;;;;5073344;28;20251;-75
2023/08/18 03:43:38;;;;;;;0.40;0.40;;;12.20;99.90;;;;;;5073161;28;20192;-76
2023/08/18 03:46:19;;;;;;;0.40;0.40;;;12.20;99.90;;;;;;5071803;28;20710;-76
2023/08/18 03:48:44;;;;;;;0.60;0.60;;;12.10;99.90;;;;;;5073263;28;20201;-76
2023/08/18 03:51:10;;;;;;;2.15;1.95;;;12.20;99.90;;;;;;5064324;28;20213;-75
2023/08/18 03:53:37;;;;;;;1.23;0.93;;;12.20;99.90;;;;;;5053032;28;20556;-76
2023/08/18 03:56:03;;;;;;;0.50;0.50;;;12.20;99.90;;;;;;5052967;28;20623;-76
2023/08/18 03:58:28;;;;;;;0.52;0.52;;;12.40;99.90;;;;;;5034978;28;20285;-76
2023/08/18 04:01:01;;;;;;;0.50;0.50;;;12.50;99.90;;;;;;5052913;28;20194;-76
2023/08/18 04:03:27;;;;;;;0.40;0.40;;;12.60;99.90;;;;;;5052541;28;20236;-76
2023/08/18 04:05:53;;;;;;;5.05;0.82;;;12.80;99.90;;;;;;5034799;28;20197;-76
2023/08/18 04:08:19;;;;;;;0.40;0.40;;;12.80;99.90;;;;;;5034856;28;20232;-76
2023/08/18 04:10:44;;;;;;;0.40;0.40;;;13.00;99.90;;;;;;5052772;28;20652;-77
2023/08/18 04:13:10;;;;;;;0.60;0.60;;;13.10;99.90;;;;;;5052678;28;20237;-76
2023/08/18 04:15:36;;;;;;;0.40;0.40;;;13.20;99.90;;;;;;5034758;28;20189;-76
2023/08/18 04:18:02;;;;;;;0.40;0.40;;;13.30;99.90;;;;;;5034697;28;20248;-76
2023/08/18 04:20:29;;;;;;;0.40;0.40;;;13.40;99.90;;;;;;5052203;28;20644;-76
2023/08/18 04:22:54;;;;;;;0.47;0.47;;;13.50;99.90;;;;;;5052841;28;20663;-76
2023/08/18 04:25:20;;;;;;;0.40;0.40;;;13.60;99.90;;;;;;5033757;28;20202;-76
2023/08/18 04:27:46;;;;;;;0.40;0.40;;;13.60;99.90;;;;;;5054520;28;20197;-76
2023/08/18 04:30:13;;;;;;;0.40;0.40;;;13.70;99.90;;;;;;5072362;28;20331;-77
2023/08/18 04:32:38;;;;;;;0.40;0.40;;;13.80;99.90;;;;;;5072284;28;20324;-76
2023/08/18 04:35:06;;;;;;;0.40;0.40;;;13.90;99.90;;;;;;5053724;28;20690;-76
2023/08/18 04:37:31;;;;;;;0.40;0.40;;;14.00;99.90;;;;;;5052083;28;20213;-76
2023/08/18 04:39:57;;;;;;;0.50;0.50;;;14.10;99.90;;;;;;5034383;28;20269;-77
2023/08/18 04:42:23;;;;;;;0.30;0.30;;;14.20;99.90;;;;;;5050578;28;20228;-76
2023/08/18 04:44:53;;;;;;;0.30;0.30;;;14.30;99.90;;;;;;5052302;28;20526;-77
2023/08/18 04:47:18;;;;;;;0.55;0.55;;;14.40;99.90;;;;;;5051925;28;20281;-77
2023/08/18 04:49:44;;;;;;;0.50;0.50;;;14.50;99.90;;;;;;5052384;28;20273;-77
2023/08/18 04:52:11;;;;;;;0.40;0.40;;;14.50;99.90;;;;;;5051880;28;20193;-77
2023/08/18 04:54:36;;;;;;;0.60;0.60;;;14.60;99.90;;;;;;5051850;28;20194;-76
2023/08/18 04:57:07;;;;;;;0.38;0.38;;;14.70;99.90;;;;;;5051927;28;20194;-76
2023/08/18 04:59:33;;;;;;;0.50;0.50;;;14.80;99.90;;;;;;5034971;28;20194;-76
2023/08/18 05:01:58;;;;;;;0.30;0.30;;;14.80;99.90;;;;;;5018399;28;20747;-77
2023/08/18 05:04:24;;;;;;;0.30;0.30;;;14.90;99.90;;;;;;5033930;28;20391;-75
2023/08/18 05:06:56;;;;;;;0.40;0.40;;;14.90;99.90;;;;;;5051913;28;20202;-76
2023/08/18 05:09:23;;;;;;;0.30;0.30;;;14.90;99.90;;;;;;5051675;28;20259;-76
2023/08/18 05:11:48;;;;;;;0.40;0.40;;;14.90;99.90;;;;;;5051622;28;20280;-77
2023/08/18 05:14:14;;;;;;;0.30;0.30;;;14.90;99.90;;;;;;5051714;28;20308;-77
2023/08/18 05:16:40;;;;;;;0.40;0.40;;;14.90;99.90;;;;;;5051627;28;20186;-76
2023/08/18 05:19:06;;;;;;;0.57;0.57;;;14.90;99.90;;;;;;5033821;28;20288;-76
2023/08/18 05:21:32;;;;;;;0.50;0.50;;;14.90;99.90;;;;;;5050387;28;20553;-76
2023/08/18 05:23:57;;;;;;;0.30;0.30;;;14.90;99.90;;;;;;5033728;28;20637;-76
2023/08/18 05:26:23;;;;;;;0.30;0.30;;;14.90;99.90;;;;;;5051354;28;20270;-77
2023/08/18 05:28:49;;;;;;;0.30;0.30;;;14.80;99.90;;;;;;5033516;28;20271;-77
2023/08/18 05:31:15;;;;;;;0.30;0.30;;;14.80;99.90;;;;;;5050133;28;20293;-76
2023/08/18 05:33:41;;;;;;;0.50;0.50;;;14.80;99.90;;;;;;5051290;28;20201;-76
2023/08/18 05:36:10;;;;;;;0.50;0.50;;;14.80;99.90;;;;;;5050406;28;20216;-76
2023/08/18 05:38:35;;;;;;;0.30;0.30;;;14.80;99.90;;;;;;5033658;28;20201;-76
2023/08/18 05:41:06;;;;;;;0.47;0.47;;;14.90;99.90;;;;;;5051480;28;20259;-76
2023/08/18 05:43:37;;;;;;;0.30;0.30;;;14.90;99.90;;;;;;5051427;28;20221;-76
2023/08/18 05:46:03;;;;;;;0.40;0.40;;;14.90;99.90;;;;;;5049673;28;20617;-77
2023/08/18 05:48:30;;;;;;;0.40;0.40;;;14.90;99.90;;;;;;5051187;28;20196;-76
2023/08/18 05:50:56;;;;;;;0.35;0.35;;;14.90;99.90;;;;;;5033475;28;20224;-76
2023/08/18 05:53:21;;;;;;;0.30;0.30;;;15.00;99.90;;;;;;5051077;28;20655;-76
2023/08/18 05:55:47;;;;;;;0.43;0.43;;;15.00;99.90;;;;;;5051481;28;20671;-77
2023/08/18 05:58:13;;;;;;;0.40;0.40;;;15.00;99.90;;;;;;5051289;28;20273;-76
2023/08/18 06:00:39;;;;;;;0.50;0.50;;;15.00;99.90;;;;;;5033235;28;20285;-76
2023/08/18 06:03:05;;;;;;;0.40;0.40;;;15.10;99.90;;;;;;5051090;28;20248;-76
2023/08/18 06:05:30;;;;;;;0.40;0.40;;;15.10;99.90;;;;;;5033202;28;20699;-75
2023/08/18 06:07:57;;;;;;;0.40;0.40;;;15.20;99.90;;;;;;5033320;28;20197;-76
2023/08/18 06:10:22;;;;;;;0.35;0.35;;;15.20;99.90;;;;;;5050865;28;20193;-75
2023/08/18 06:12:49;;;;;;;0.40;0.40;;;15.30;99.90;;;;;;5051051;28;20228;-76
2023/08/18 06:15:16;;;;;;;0.30;0.30;;;15.30;99.90;;;;;;5051104;28;20604;-76
2023/08/18 06:17:42;;;;;;;0.40;0.40;;;15.50;99.90;;;;;;5051130;28;20197;-75
2023/08/18 06:20:08;;;;;;;0.30;0.30;;;15.60;99.90;;;;;;5033327;28;20907;-76
2023/08/18 06:22:34;;;;;;;0.30;0.30;;;15.70;99.90;;;;;;5050949;28;20285;-75
2023/08/18 06:24:59;;;;;;;0.38;0.38;;;15.80;99.90;;;;;;5051084;28;20205;-75
2023/08/18 06:27:25;;;;;;;0.30;0.30;;;15.90;99.90;;;;;;5050821;28;20217;-76
2023/08/18 06:29:52;;;;;;;0.35;0.35;;;16.10;99.90;;;;;;5029622;28;20217;-74
2023/08/18 06:32:18;;;;;;;0.30;0.30;;;16.10;99.90;;;;;;5030944;28;20201;-75
2023/08/18 06:34:44;;;;;;;0.20;0.20;;;16.20;99.90;;;;;;5030892;28;20579;-74
2023/08/18 06:37:10;;;;;;;0.40;0.40;;;16.20;99.90;;;;;;5013202;28;20216;-75
2023/08/18 06:39:35;;;;;;;0.30;0.30;;;16.30;99.90;;;;;;5030768;28;20579;-75
2023/08/18 06:42:04;;;;;;;0.30;0.30;;;16.40;99.90;;;;;;5030987;28;20281;-75
2023/08/18 06:44:30;;;;;;;0.60;0.60;;;16.50;99.90;;;;;;5030923;28;20729;-75
2023/08/18 06:46:56;;;;;;;0.30;0.30;;;16.60;99.90;;;;;;5031230;28;20234;-75
2023/08/18 06:49:24;;;;;;;0.20;0.20;;;16.70;99.90;;;;;;5034429;28;20226;-74
2023/08/18 06:51:53;;;;;;;0.30;0.30;;;16.80;99.90;;;;;;5030637;28;20202;-75
2023/08/18 06:54:18;;;;;;;0.30;0.30;;;16.90;99.90;;;;;;5057675;28;20682;-75
2023/08/18 06:56:44;;;;;;;0.20;0.20;;;17.10;99.90;;;;;;5073366;28;20189;-76
2023/08/18 06:59:12;;;;;;;0.40;0.40;;;17.20;99.90;;;;;;5074345;28;20189;-76
2023/08/18 07:01:38;;;;;;;0.30;0.30;;;17.30;99.90;;;;;;5077595;28;20228;-76
2023/08/18 07:04:04;;;;;;;0.30;0.30;;;17.50;99.90;;;;;;5076303;28;20638;-77
2023/08/18 07:06:31;;;;;;;0.30;0.30;;;17.70;99.90;;;;;;5075981;28;20226;-76
2023/08/18 07:08:57;;;;;;;0.30;0.30;;;17.90;99.90;;;;;;5059488;28;20287;-76
2023/08/18 07:11:23;;;;;;;0.20;0.20;;;18.20;99.90;;;;;;5094043;28;20726;-76
2023/08/18 07:13:49;;;;;;;0.30;0.30;;;18.20;99.90;;;;;;5085340;28;20259;-76
2023/08/18 07:16:14;;;;;;;0.43;0.43;;;18.20;99.90;;;;;;5073949;28;20189;-77
2023/08/18 07:18:40;;;;;;;0.30;0.30;;;18.00;99.90;;;;;;5054572;28;20205;-76
2023/08/18 07:21:06;;;;;;;0.28;0.28;;;18.00;99.90;;;;;;5062969;28;20779;-76
2023/08/18 07:23:31;;;;;;;0.20;0.20;;;18.00;99.90;;;;;;5073596;28;20203;-77
2023/08/18 07:25:58;;;;;;;0.30;0.30;;;18.10;99.90;;;;;;5055681;28;20201;-76
2023/08/18 07:28:24;;;;;;;0.22;0.22;;;18.00;99.90;;;;;;5055528;28;20289;-77
2023/08/18 07:30:52;;;;;;;0.22;0.22;;;18.00;99.90;;;;;;5055671;28;20343;-77
2023/08/18 07:33:22;;;;;;;0.30;0.30;;;18.00;99.90;;;;;;5073440;28;20283;-77
2023/08/18 07:35:48;;;;;;;0.30;0.30;;;18.10;99.90;;;;;;5055536;28;20200;-77
2023/08/18 07:38:17;;;;;;;0.40;0.40;;;18.10;99.90;;;;;;5073472;28;20189;-76
2023/08/18 07:40:43;;;;;;;0.20;0.20;;;18.20;99.90;;;;;;5073481;28;20195;-77
2023/08/18 07:43:08;;;;;;;0.20;0.20;;;18.30;99.90;;;;;;5073443;28;20197;-77
2023/08/18 07:45:34;;;;;;;0.32;0.32;;;18.40;99.90;;;;;;5073082;28;20698;-76
2023/08/18 07:48:00;;;;;;;0.30;0.30;;;18.50;99.90;;;;;;5073162;28;20303;-76
2023/08/18 07:50:26;;;;;;;0.20;0.20;;;18.50;99.90;;;;;;5055467;28;20193;-76
2023/08/18 07:52:52;;;;;;;0.30;0.30;;;18.40;99.90;;;;;;5055228;28;20694;-76
2023/08/18 07:55:21;;;;;;;0.30;0.30;;;18.40;99.90;;;;;;5071649;28;20196;-76
2023/08/18 07:57:47;;;;;;;0.43;0.43;;;18.50;99.90;;;;;;5073145;28;20196;-76
2023/08/18 08:00:17;;;;;;;0.20;0.20;;;18.40;99.90;;;;;;5072148;28;20234;-77
2023/08/18 08:02:47;;;;;;;0.30;0.30;;;18.50;99.90;;;;;;5054744;28;20328;-76
2023/08/18 08:05:16;;;;;;;0.20;0.20;;;18.60;99.90;;;;;;5072190;28;20594;-76
2023/08/18 08:07:42;;;;;;;0.20;0.20;;;18.60;99.90;;;;;;5073022;28;20195;-75
2023/08/18 08:10:08;;;;;;;0.20;0.20;;;18.50;99.90;;;;;;5073006;28;20208;-75
2023/08/18 08:12:38;;;;;;;0.20;0.20;;;18.50;99.90;;;;;;5053867;28;20270;-75
2023/08/18 08:15:04;;;;;;;0.75;0.40;;;18.50;99.90;;;;;;5073033;28;20189;-76
2023/08/18 08:17:30;;;;;;;0.20;0.20;;;18.30;99.90;;;;;;5054762;28;20200;-76
2023/08/18 08:19:56;;;;;;;0.25;0.25;;;18.40;99.90;;;;;;5072700;28;20563;-75
2023/08/18 08:22:25;;;;;;;0.28;0.28;;;18.50;99.90;;;;;;5052388;28;20845;-74
2023/08/18 08:24:54;;;;;;;0.20;0.20;;;18.70;99.90;;;;;;5052870;28;20186;-75
2023/08/18 08:27:20;;;;;;;0.40;0.40;;;18.70;99.90;;;;;;5052552;28;20185;-75
2023/08/18 08:29:46;;;;;;;0.38;0.38;;;18.80;99.90;;;;;;5052676;28;20240;-75
2023/08/18 08:32:12;;;;;;;0.20;0.20;;;18.80;99.90;;;;;;5052528;28;20217;-76
2023/08/18 08:34:39;;;;;;;0.20;0.20;;;18.80;99.90;;;;;;5034420;28;20217;-75
2023/08/18 08:37:08;;;;;;;0.22;0.22;;;18.70;99.90;;;;;;5052433;28;20198;-74
2023/08/18 08:39:33;;;;;;;0.40;0.30;;;18.70;99.90;;;;;;5034205;28;20683;-76
2023/08/18 08:41:59;;;;;;;0.30;0.30;;;18.80;99.90;;;;;;5034390;28;20190;-75
2023/08/18 08:44:25;;;;;;;0.35;0.35;;;18.90;99.90;;;;;;5066412;28;20201;-73
2023/08/18 08:46:52;;;;;;;0.20;0.20;;;19.00;99.90;;;;;;5072138;28;20204;-76
2023/08/18 08:49:22;;;;;;;0.20;0.20;;;19.00;99.90;;;;;;5071873;28;20756;-75
2023/08/18 08:51:49;;;;;;;0.30;0.30;;;19.00;99.90;;;;;;5072307;28;20193;-75
2023/08/18 08:54:18;;;;;;;0.30;0.30;;;19.10;99.90;;;;;;5071958;28;20222;-75
2023/08/18 08:56:47;;;;;;;0.40;0.40;;;19.10;99.90;;;;;;5072114;28;20188;-75
2023/08/18 08:59:15;;;;;;;0.57;0.35;;;19.10;99.90;;;;;;5071847;28;20207;-74
2023/08/18 09:01:41;;;;;;;0.20;0.20;;;19.40;99.90;;;;;;5071623;28;20252;-74
2023/08/18 09:04:08;;;;;;;0.20;0.20;;;19.50;99.90;;;;;;5071814;28;20211;-75
2023/08/18 09:06:34;;;;;;;0.20;0.20;;;19.60;99.90;;;;;;5070594;28;20224;-75
2023/08/18 09:09:00;;;;;;;0.32;0.30;;;19.70;99.90;;;;;;5053662;28;20239;-75
2023/08/18 09:11:42;;;;;;;0.57;0.52;;;19.80;99.90;;;;;;5053426;28;20205;-75
2023/08/18 09:14:14;;;;;;;0.40;0.40;;;19.50;99.90;;;;;;5071897;28;20208;-75
2023/08/18 09:16:42;;;;;;;0.30;0.30;;;19.60;99.90;;;;;;5071495;28;20196;-75
2023/08/18 09:19:14;;;;;;;0.20;0.20;;;19.70;99.90;;;;;;5071780;28;20211;-75
2023/08/18 09:21:41;;;;;;;0.35;0.35;;;19.60;99.90;;;;;;5071527;28;20193;-75
2023/08/18 09:24:08;;;;;;;0.20;0.20;;;19.50;99.90;;;;;;5071648;28;20197;-75
2023/08/18 09:26:34;;;;;;;0.20;0.20;;;19.50;99.90;;;;;;5053325;28;20189;-75
2023/08/18 09:28:59;;;;;;;0.28;0.28;;;19.50;99.90;;;;;;5071457;28;20193;-75
2023/08/18 09:31:29;;;;;;;0.38;0.38;;;19.60;99.90;;;;;;5071676;28;20200;-75
2023/08/18 09:33:58;;;;;;;0.20;0.20;;;19.70;99.90;;;;;;5053515;28;20216;-75
2023/08/18 09:36:25;;;;;;;0.22;0.22;;;19.70;99.90;;;;;;5071241;28;20181;-75
2023/08/18 09:38:51;;;;;;;0.25;0.22;;;19.70;99.90;;;;;;5071936;28;20267;-75
2023/08/18 09:41:17;;;;;;;0.20;0.20;;;19.70;99.90;;;;;;5071406;28;20727;-76
2023/08/18 09:43:42;;;;;;;34.40;0.65;;;19.60;99.90;;;;;;5071670;28;20224;-75
2023/08/18 09:46:13;;;;;;;0.30;0.30;;;19.60;99.90;;;;;;5071497;28;20220;-75
2023/08/18 09:48:43;;;;;;;0.20;0.20;;;19.70;99.90;;;;;;5071372;28;20281;-75
2023/08/18 09:51:10;;;;;;;0.20;0.20;;;19.80;99.90;;;;;;5071511;28;20554;-76
2023/08/18 09:53:40;;;;;;;0.40;0.40;;;19.90;99.90;;;;;;5071198;28;20209;-75
2023/08/18 09:56:13;;;;;;;0.30;0.30;;;20.00;99.90;;;;;;5071212;28;20275;-76
2023/08/18 09:59:00;;;;;;;0.20;0.20;;;19.90;99.90;;;;;;5071092;28;20214;-76
2023/08/18 10:01:30;;;;;;;0.40;0.40;;;20.00;99.90;;;;;;5071032;28;20205;-76
2023/08/18 10:03:59;;;;;;;0.40;0.40;;;20.10;99.90;;;;;;5071370;28;20232;-75
2023/08/18 10:06:25;;;;;;;0.20;0.20;;;20.10;99.90;;;;;;5070980;28;20246;-76
2023/08/18 10:08:56;;;;;;;0.47;0.30;;;20.00;99.90;;;;;;5052981;28;20231;-76
2023/08/18 10:11:21;;;;;;;0.20;0.20;;;19.90;99.90;;;;;;5052888;28;20200;-76
2023/08/18 10:13:53;;;;;;;0.40;0.30;;;19.80;99.90;;;;;;5071005;28;20208;-75
2023/08/18 10:16:20;;;;;;;0.20;0.20;;;19.60;99.90;;;;;;5053606;28;20304;-75
2023/08/18 10:18:54;;;;;;;0.20;0.20;;;19.50;99.90;;;;;;5071194;28;20218;-75
2023/08/18 10:21:24;;;;;;;0.20;0.20;;;19.40;99.90;;;;;;5070559;28;20207;-75
2023/08/18 10:23:49;;;;;;;0.20;0.20;;;19.30;99.90;;;;;;5074438;28;20284;-78
2023/08/18 10:26:15;;;;;;;0.20;0.20;;;19.30;99.90;;;;;;5075107;28;20699;-77
2023/08/18 10:28:41;;;;;;;0.25;0.25;;;19.30;99.90;;;;;;5074865;28;20667;-75
2023/08/18 10:31:09;;;;;;;0.20;0.20;;;19.30;99.90;;;;;;5056130;28;20205;-76
2023/08/18 10:33:43;;;;;;;0.20;0.20;;;19.50;99.90;;;;;;5074453;28;20225;-76
2023/08/18 10:36:09;;;;;;;0.35;0.28;;;19.50;99.90;;;;;;5066663;28;20221;-76
2023/08/18 10:38:39;;;;;;;0.50;0.40;;;19.70;99.90;;;;;;5054560;28;20335;-77
2023/08/18 10:41:05;;;;;;;0.30;0.30;;;19.70;99.90;;;;;;5072314;28;20836;-77
2023/08/18 10:43:41;;;;;;;0.20;0.20;;;19.80;99.90;;;;;;5074388;28;20253;-77
2023/08/18 10:46:16;;;;;;;0.25;0.25;;;19.90;99.90;;;;;;5074376;28;20200;-75
2023/08/18 10:48:43;;;;;;;0.55;0.47;;;19.90;99.90;;;;;;5074480;28;20192;-75
2023/08/18 10:51:08;;;;;;;0.40;0.40;;;19.90;99.90;;;;;;5074233;28;20246;-76
2023/08/18 10:53:37;;;;;;;0.35;0.35;;;19.90;99.90;;;;;;5072813;28;20679;-76
2023/08/18 10:56:04;;;;;;;0.52;0.40;;;19.80;99.90;;;;;;5073087;28;20196;-76
2023/08/18 10:58:31;;;;;;;0.30;0.30;;;19.70;99.90;;;;;;5073219;28;20582;-76
2023/08/18 11:00:57;;;;;;;0.20;0.20;;;19.70;99.90;;;;;;5074230;28;20539;-76
2023/08/18 11:03:24;;;;;;;0.30;0.30;;;19.70;99.90;;;;;;5052369;28;20228;-77
2023/08/18 11:05:50;;;;;;;0.88;0.50;;;19.70;99.90;;;;;;5054083;28;20278;-76
2023/08/18 11:08:15;;;;;;;0.20;0.20;;;19.70;99.90;;;;;;5035754;28;20233;-76
2023/08/18 11:10:44;;;;;;;0.20;0.20;;;19.70;99.90;;;;;;5053825;28;20707;-76
2023/08/18 11:13:21;;;;;;;0.40;0.40;;;19.70;99.90;;;;;;5053820;28;20205;-76
2023/08/18 11:15:50;;;;;;;0.30;0.30;;;19.60;99.90;;;;;;5054274;28;20185;-76
2023/08/18 11:18:16;;;;;;;0.43;0.30;;;19.60;99.90;;;;;;5048810;28;20691;-76
2023/08/18 11:20:42;;;;;;;0.20;0.20;;;19.70;99.90;;;;;;5037319;28;20200;-76
2023/08/18 11:23:09;;;;;;;0.28;0.28;;;19.80;99.90;;;;;;5053772;28;20190;-76
2023/08/18 11:25:36;;;;;;;0.38;0.38;;;19.90;99.90;;;;;;5035804;28;20225;-76
2023/08/18 11:28:05;;;;;;;0.20;0.20;;;20.00;99.90;;;;;;5053680;28;20276;-77
2023/08/18 11:30:32;;;;;;;0.40;0.40;;;20.10;99.90;;;;;;5053638;28;20210;-77
2023/08/18 11:33:00;;;;;;;0.32;0.32;;;20.10;99.90;;;;;;5065300;28;20671;-77
2023/08/18 11:35:29;;;;;;;0.20;0.20;;;20.20;99.90;;;;;;5072533;28;20534;-77
2023/08/18 11:37:55;;;;;;;0.20;0.20;;;20.30;99.90;;;;;;5073823;28;20216;-76
2023/08/18 11:40:22;;;;;;;0.93;0.57;;;20.40;99.90;;;;;;5055124;28;20590;-77
2023/08/18 11:42:53;;;;;;;0.20;0.20;;;20.40;99.90;;;;;;5073452;28;20208;-77
2023/08/18 11:45:24;;;;;;;0.20;0.20;;;20.30;99.90;;;;;;5055613;28;20281;-76
2023/08/18 11:48:20;;;;;;;0.20;0.20;;;20.30;99.90;;;;;;5073473;28;20193;-76
2023/08/18 11:50:45;;;;;;;0.28;0.28;;;20.30;99.90;;;;;;5053788;28;20205;-76
2023/08/18 11:53:11;;;;;;;0.38;0.38;;;20.40;99.90;;;;;;5073126;28;20270;-77
2023/08/18 11:55:43;;;;;;;0.30;0.30;;;20.50;99.90;;;;;;5055133;28;20255;-75
2023/08/18 11:58:16;;;;;;;0.30;0.30;;;20.50;99.90;;;;;;5072989;28;20287;-76
2023/08/18 12:00:44;;;;;;;0.28;0.28;;;20.60;99.90;;;;;;5073022;28;20251;-76
2023/08/18 12:03:27;;;;;;;0.75;0.63;;;20.70;99.90;;;;;;5038138;28;20233;-76
2023/08/18 12:05:54;;;;;;;0.25;0.25;;;20.80;99.90;;;;;;5052059;28;20193;-76
2023/08/18 12:08:21;;;;;;;0.43;0.43;;;21.00;99.90;;;;;;5051872;28;20217;-75
2023/08/18 12:10:49;;;;;;;0.20;0.20;;;21.30;99.90;;;;;;5051906;28;20672;-76
2023/08/18 12:13:16;;;;;;;0.30;0.30;;;21.50;99.90;;;;;;5051836;28;20213;-77
2023/08/18 12:15:42;;;;;;;0.30;0.30;;;21.70;99.90;;;;;;5034026;28;20200;-77
2023/08/18 12:18:08;;;;;;;1.00;0.38;;;21.90;99.90;;;;;;5051969;28;20225;-77
2023/08/18 12:20:35;;;;;;;0.22;0.22;;;22.00;99.90;;;;;;5051429;28;20228;-78
2023/08/18 12:23:01;;;;;;;0.20;0.20;;;22.00;99.90;;;;;;5051909;28;20196;-76
2023/08/18 12:25:27;;;;;;;0.20;0.20;;;22.10;99.90;;;;;;5050481;28;20680;-76
2023/08/18 12:27:53;;;;;;;0.20;0.20;;;22.20;99.90;;;;;;5051671;28;20252;-77
2023/08/18 12:30:24;;;;;;;0.20;0.20;;;22.10;99.90;;;;;;5051639;28;20272;-78
2023/08/18 12:32:53;;;;;;;0.20;0.20;;;22.00;99.90;;;;;;5033619;28;20293;-76
2023/08/18 12:35:20;;;;;;;0.40;0.25;;;21.90;99.90;;;;;;5050225;28;20200;-77
2023/08/18 12:37:45;;;;;;;0.28;0.28;;;21.80;99.90;;;;;;5051518;28;20194;-77
2023/08/18 12:40:11;;;;;;;0.22;0.22;;;21.70;99.90;;;;;;5051459;28;20192;-78
2023/08/18 12:42:38;;;;;;;0.20;0.20;;;21.70;99.90;;;;;;5033550;28;20676;-77
2023/08/18 12:45:05;;;;;;;0.20;0.20;;;21.80;99.90;;;;;;5051282;28;20189;-78
2023/08/18 12:47:31;;;;;;;0.20;0.20;;;22.00;99.90;;;;;;5033732;28;20197;-78
2023/08/18 12:50:00;;;;;;;0.20;0.20;;;22.20;99.90;;;;;;5033706;28;20197;-77